createdAt,value
2018-10-18T00:01:54.640Z,50.07
2018-10-18T00:04:47.970Z,48.90
2018-10-18T00:10:02.605Z,49.97
2018-10-18T00:12:40.440Z,51.20
2018-10-18T00:17:52.381Z,50.53
2018-10-18T00:20:28.201Z,52.53
2018-10-18T00:23:00.910Z,54.50
2018-10-18T00:28:18.451Z,54.57
2018-10-18T00:30:53.625Z,56.23
2018-10-18T00:38:48.988Z,55.63
2018-10-18T00:41:23.203Z,56.53
2018-10-18T00:43:55.984Z,57.43
2018-10-18T00:46:30.561Z,57.83
2018-10-18T00:49:03.084Z,57.97
2018-10-18T00:51:35.312Z,58.80
2018-10-18T00:54:19.960Z,59.57
2018-10-18T00:56:55.323Z,59.30
2018-10-18T00:59:37.883Z,58.80
2018-10-18T01:02:09.276Z,59.93
2018-10-18T01:05:22.393Z,60.10
2018-10-18T01:07:56.840Z,60.67
2018-10-18T01:10:27.810Z,61.30
2018-10-18T01:15:53.588Z,59.17
2018-10-18T01:21:18.010Z,61.13
2018-10-18T01:23:56.521Z,63.27
2018-10-18T01:26:28.156Z,62.87
2018-10-18T01:28:58.391Z,63.33
2018-10-18T01:34:15.426Z,66.27
2018-10-18T01:36:50.800Z,65.07
2018-10-18T01:39:21.556Z,66.03
2018-10-18T01:41:52.497Z,65.57
2018-10-18T01:44:26.400Z,65.03
2018-10-18T01:46:59.797Z,66.47
2018-10-18T01:49:31.680Z,65.17
2018-10-18T01:52:03.010Z,66.23
2018-10-18T01:54:50.182Z,65.00
2018-10-18T02:00:01.551Z,65.13
2018-10-18T02:02:40.293Z,65.77
2018-10-18T02:05:11.213Z,68.03
2018-10-18T02:07:43.050Z,66.93
2018-10-18T02:10:14.942Z,69.10
2018-10-18T02:12:47.290Z,69.77
2018-10-18T02:15:17.951Z,70.03
2018-10-18T02:17:49.416Z,68.20
2018-10-18T02:23:04.887Z,72.80
2018-10-18T02:25:40.753Z,72.47
2018-10-18T02:28:13.244Z,69.03
2018-10-18T02:30:53.997Z,72.23
2018-10-18T02:33:24.787Z,70.27
2018-10-18T02:35:59.443Z,69.93
2018-10-18T02:38:30.909Z,67.53
2018-10-18T02:43:47.509Z,68.23
2018-10-18T02:46:25.605Z,69.83
2018-10-18T02:48:57.413Z,69.93
2018-10-18T02:51:28.354Z,69.80
2018-10-18T02:56:57.500Z,72.17
2018-10-18T02:59:33.983Z,73.07
2018-10-18T03:04:53.761Z,72.97
2018-10-18T03:07:23.430Z,79.93
2018-10-18T03:09:55.077Z,81.17
2018-10-18T03:12:25.725Z,80.77
2018-10-18T03:15:00.956Z,83.83
2018-10-18T03:17:43.228Z,81.10
2018-10-18T03:20:15.071Z,80.33
2018-10-18T03:22:59.994Z,86.93
2018-10-18T03:25:38.244Z,83.87
2018-10-18T03:33:27.403Z,84.83
2018-10-18T03:36:01.335Z,88.23
2018-10-18T03:38:33.541Z,86.60
2018-10-18T03:43:46.358Z,88.93
2018-10-18T03:46:21.284Z,87.40
2018-10-18T03:51:30.548Z,88.13
2018-10-18T03:54:32.369Z,82.87
2018-10-18T03:57:02.539Z,85.87
2018-10-18T03:59:35.040Z,85.80
2018-10-18T04:02:05.433Z,85.67
2018-10-18T04:04:42.020Z,81.20
2018-10-18T04:07:17.472Z,80.77
2018-10-18T04:09:48.337Z,84.40
2018-10-18T04:12:21.719Z,81.97
2018-10-18T04:14:59.049Z,81.83
2018-10-18T04:17:29.583Z,81.57
2018-10-18T04:20:01.275Z,81.50
2018-10-18T04:22:35.229Z,82.53
2018-10-18T04:25:09.810Z,82.17
2018-10-18T04:30:17.877Z,77.70
2018-10-18T04:33:13.083Z,76.07
2018-10-18T04:35:46.330Z,78.87
2018-10-18T04:38:16.665Z,80.67
2018-10-18T04:40:49.598Z,75.30
2018-10-18T04:43:23.929Z,73.97
2018-10-18T04:45:55.332Z,69.97
2018-10-18T04:48:31.514Z,70.03
2018-10-18T04:51:12.752Z,73.80
2018-10-18T04:56:40.283Z,69.33
2018-10-18T04:59:13.618Z,71.10
2018-10-18T05:01:48.618Z,69.93
2018-10-18T05:04:25.134Z,71.17
2018-10-18T05:07:08.069Z,68.70
2018-10-18T05:09:51.774Z,73.00
2018-10-18T05:12:36.307Z,73.73
2018-10-18T05:18:02.923Z,74.57
2018-10-18T05:29:05.855Z,71.60
2018-10-18T05:46:29.501Z,70.73
2018-10-18T05:49:01.277Z,78.10
2018-10-18T05:51:41.478Z,80.50
2018-10-18T06:12:26.733Z,66.80
2018-10-18T06:15:03.973Z,64.70
2018-10-18T06:20:39.693Z,63.33
2018-10-18T07:09:20.952Z,41.93
2018-10-18T08:11:06.593Z,18.63
2018-10-18T08:14:15.879Z,16.97
2018-10-18T08:35:49.211Z,15.07
2018-10-18T16:45:23.598Z,1.70
2018-10-18T16:51:07.973Z,1.50
2018-10-18T17:35:41.436Z,1.27
2018-10-18T17:44:22.867Z,1.63
2018-10-18T19:26:35.537Z,1.40
2018-10-18T19:34:54.175Z,1.57
2018-10-18T22:55:41.760Z,1.20
2018-10-18T22:58:23.819Z,1.40
2018-10-18T23:03:29.953Z,1.57
2018-10-18T23:11:36.377Z,1.40
2018-10-18T23:14:44.054Z,1.23
2018-10-18T23:20:11.373Z,1.50
2018-10-18T23:22:43.802Z,1.40
2018-10-18T23:25:42.853Z,1.70
2018-10-18T23:39:32.761Z,1.53
2018-10-18T23:42:14.935Z,1.40
2018-10-18T23:44:54.866Z,1.40
2018-10-18T23:47:34.096Z,1.50
2018-10-18T23:53:01.788Z,1.27
